Bangkok Bridge — 3FTZ8 — position and weather

sailwx.info

Track history (hours):
 
Tides and Currents Weather Stations Pressure Air Temp Water Temp Dewpoint Dewpoint Depression Visibility Wind Speed Wind Dir Waves Ship Positions

Bangkok Bridge

Last reported at 2017-Dec-07 19:41 UTC. Time now 2017-Dec-13 20:53 UTC.
Position N 38°58' W 129°20'.

Length 267 m; draft 11.8 m.

Type: Ship (hazmat cat A). MMSI: 353368000.

Date/timePositionNaut miles runAvg speedWind from/ knotsBaromVisibWave heightAir tempDewpointWater temp
2017-Dec-07 19:41N 38°58' W 129°20'419.8
2017-Dec-07 19:30N 38°56' W 129°16'1019.8
2017-Dec-07 19:00N 38°51' W 129°05'5919.6
2017-Dec-07 16:00N 38°18' W 128°03'919.1
2017-Dec-07 15:30N 38°13' W 127°53'1019.1
2017-Dec-07 15:00N 38°13' W 127°40'3519.3
2017-Dec-07 13:12N 38°12' W 126°56'419.5
2017-Dec-07 13:01N 38°12' W 126°51'1019.1
2017-Dec-07 12:30N 38°12' W 126°39'1019.3
2017-Dec-07 12:00N 38°12' W 126°27'1019.4
2017-Dec-07 11:30N 38°12' W 126°14'1019.7
2017-Dec-07 11:00N 38°12' W 126°02'1120.0
2017-Dec-07 10:28N 38°12' W 125°48'919.6
2017-Dec-07 10:01N 38°12' W 125°37'1019.3
2017-Dec-07 09:31N 38°11' W 125°24'1019.6
2017-Dec-07 09:01N 38°11' W 125°12'1019.8
2017-Dec-07 08:30N 38°11' W 124°59'1019.7
2017-Dec-07 08:00N 38°11' W 124°47'1019.3
2017-Dec-07 07:31N 38°11' W 124°35'1019.1
2017-Dec-07 07:01N 38°11' W 124°23'919.0
2017-Dec-07 06:31N 38°11' W 124°10'1019.0
2017-Dec-07 06:00N 38°10' W 123°58'1019.1
2017-Dec-07 05:30N 38°10' W 123°46'919.1
2017-Dec-07 05:01N 38°10' W 123°34'1019.2
2017-Dec-07 04:31N 38°10' W 123°22'918.4
2017-Dec-07 04:01N 38°03' W 123°14'918.6
2017-Dec-07 03:30N 37°57' W 123°05'919.0
2017-Dec-07 03:01N 37°52' W 122°54'918.6
2017-Dec-07 02:30N 37°47' W 122°44'612.8
2017-Dec-07 02:00N 37°47' W 122°36'918.4
2017-Dec-07 01:30N 37°51' W 122°26'510.4
2017-Dec-07 01:00N 37°49' W 122°20'0 0.3
2017-Dec-07 00:28N 37°49' W 122°20'0 0.0
2017-Dec-06 23:58N 37°49' W 122°20'0 0.0
2017-Dec-06 23:28N 37°49' W 122°20'0 0.0
2017-Dec-06 22:58N 37°49' W 122°20'0 0.0
2017-Dec-06 22:28N 37°49' W 122°20'0 0.0
2017-Dec-06 21:58N 37°49' W 122°20'0 0.0
2017-Dec-06 21:28N 37°49' W 122°20'0 0.0
2017-Dec-06 20:58N 37°49' W 122°20'  
2017-Dec-04 10:26N 34°04' W 119°16'4 8.7
2017-Dec-04 09:57N 34°02' W 119°11'5 8.8
2017-Dec-04 09:25N 34°00' W 119°06'4 8.9
2017-Dec-04 08:58N 33°58' W 119°02'4 8.6
2017-Dec-04 08:30N 33°56' W 118°58'4 8.7
2017-Dec-04 08:00N 33°54' W 118°54'4 8.6
2017-Dec-04 07:30N 33°52' W 118°49'4 8.5
2017-Dec-04 07:00N 33°50' W 118°45'4 8.6
2017-Dec-04 06:30N 33°48' W 118°40'4 8.5
2017-Dec-04 06:00N 33°46' W 118°36'4 8.4
2017-Dec-04 05:28N 33°43' W 118°31'4 8.5
2017-Dec-04 05:00N 33°41' W 118°27'4 8.3
2017-Dec-04 04:30N 33°39' W 118°23'4 8.1
2017-Dec-04 04:00N 33°38' W 118°18'4 7.8
2017-Dec-04 03:30N 33°39' W 118°13'4 8.1
2017-Dec-04 02:58N 33°43' W 118°11'2 3.0
2017-Dec-04 02:19N 33°45' W 118°12'0 0.1
2017-Dec-04 01:22N 33°45' W 118°12'0 0.0
2017-Dec-04 00:58N 33°45' W 118°12'0 0.0
2017-Dec-04 00:28N 33°45' W 118°12'0 0.0
2017-Dec-03 23:10N 33°45' W 118°12'0 0.3
2017-Dec-03 22:58N 33°45' W 118°12'0 0.0
2017-Dec-03 08:43N 33°45' W 118°12'0 0.2
2017-Dec-03 08:28N 33°45' W 118°12'0 0.1
2017-Dec-03 07:58N 33°45' W 118°12'0 0.1
2017-Dec-03 07:28N 33°45' W 118°12'0 0.0
2017-Dec-03 06:58N 33°45' W 118°12'0 0.0
2017-Dec-03 05:46N 33°45' W 118°12'0 0.2
2017-Dec-03 05:28N 33°45' W 118°12'0 0.0
2017-Dec-03 04:10N 33°45' W 118°12'0 0.2
2017-Dec-03 03:52N 33°45' W 118°12'0 0.1
2017-Dec-03 03:10N 33°45' W 118°12'0 0.0
2017-Dec-03 02:58N 33°45' W 118°12'0 0.0
2017-Dec-03 02:10N 33°45' W 118°12'0 0.0
2017-Dec-03 01:58N 33°45' W 118°12'0 0.0
2017-Dec-03 00:52N 33°45' W 118°12'0 0.0
2017-Dec-02 22:58N 33°45' W 118°12'0 0.0
2017-Dec-02 22:16N 33°45' W 118°12'0 0.0
2017-Dec-02 21:58N 33°45' W 118°12'0 0.0
2017-Dec-02 21:28N 33°45' W 118°12'0 0.0
2017-Dec-02 20:58N 33°45' W 118°12'0 0.0
2017-Dec-02 20:28N 33°45' W 118°12'0 0.0
2017-Dec-02 19:58N 33°45' W 118°12'0 0.0
2017-Dec-02 19:28N 33°45' W 118°12'0 0.0
2017-Dec-02 18:58N 33°45' W 118°12'0 0.0
2017-Dec-02 18:22N 33°45' W 118°12'0 0.1
2017-Dec-02 17:58N 33°45' W 118°12'0 0.0
2017-Dec-02 10:40N 33°45' W 118°12'0 0.0
2017-Dec-02 10:28N 33°45' W 118°12'0 0.0
2017-Dec-02 09:58N 33°45' W 118°12'0 0.0
2017-Dec-02 09:28N 33°45' W 118°12'0 0.1
2017-Dec-02 08:58N 33°45' W 118°12'0 0.0
2017-Dec-02 08:28N 33°45' W 118°12'0 0.1
2017-Dec-02 07:58N 33°45' W 118°12'0 0.0
2017-Dec-02 07:28N 33°45' W 118°12'0 0.0
2017-Dec-02 06:58N 33°45' W 118°12'0 0.1
2017-Dec-02 06:28N 33°45' W 118°12'0 0.0
2017-Dec-02 05:58N 33°45' W 118°12'0 0.1
2017-Dec-02 05:28N 33°45' W 118°12'0 0.1
2017-Dec-02 04:52N 33°45' W 118°12'0 0.0
2017-Dec-02 04:28N 33°45' W 118°12'0 0.0
2017-Dec-02 03:34N 33°45' W 118°12'0 0.2
2017-Dec-02 03:22N 33°45' W 118°12'0 0.0
2017-Dec-02 01:04N 33°45' W 118°12'0 0.5
2017-Dec-02 00:58N 33°45' W 118°12'0 0.0
2017-Dec-02 00:22N 33°45' W 118°12'0 0.1
2017-Dec-01 23:58N 33°45' W 118°12'0 0.0
2017-Dec-01 23:28N 33°45' W 118°12'0 0.0
2017-Dec-01 22:58N 33°45' W 118°12'0 0.0
2017-Dec-01 22:28N 33°45' W 118°12'0 0.0
2017-Dec-01 21:58N 33°45' W 118°12'0 0.0
2017-Dec-01 21:28N 33°45' W 118°12'0 0.0
2017-Dec-01 20:58N 33°45' W 118°12'0 0.0
2017-Dec-01 20:28N 33°45' W 118°12'0 0.0
2017-Dec-01 19:58N 33°45' W 118°12'0 0.0
2017-Dec-01 19:28N 33°45' W 118°12'0 0.0
2017-Dec-01 14:13N 33°45' W 118°12'0 0.0
2017-Dec-01 14:00N 33°45' W 118°12'0 0.0
2017-Dec-01 13:30N 33°45' W 118°12'0 0.1
2017-Dec-01 12:58N 33°45' W 118°12'1 2.6
2017-Dec-01 12:28N 33°43' W 118°11'4 9.5
2017-Dec-01 12:00N 33°39' W 118°11'4 8.0
2017-Dec-01 11:30N 33°36' W 118°15'4 8.4
2017-Dec-01 11:00N 33°36' W 118°20'5 9.6
2017-Dec-01 10:30N 33°37' W 118°26'5 9.5
2017-Dec-01 10:00N 33°37' W 118°31'5 9.1
2017-Dec-01 09:30N 33°37' W 118°37'5 9.1
2017-Dec-01 08:59N 33°37' W 118°43'5 9.5
2017-Dec-01 08:28N 33°37' W 118°48'4 9.6
2017-Dec-01 08:00N 33°37' W 118°54'5 9.6
2017-Dec-01 07:26N 33°38' W 119°00'5 9.9
2017-Dec-01 06:59N 33°38' W 119°06'5 9.9
2017-Dec-01 06:30N 33°37' W 119°11'5 9.7
2017-Dec-01 05:59N 33°37' W 119°17'510.3
2017-Dec-01 05:30N 33°37' W 119°23'611.4
2017-Dec-01 04:58N 33°37' W 119°31'511.0
2017-Dec-01 04:30N 33°37' W 119°37'611.1
2017-Dec-01 04:00N 33°37' W 119°43'610.9
2017-Dec-01 03:28N 33°37' W 119°50'511.0
2017-Dec-01 03:00N 33°36' W 119°57'5 9.4
2017-Dec-01 02:30N 33°36' W 120°02'510.5
2017-Dec-01 02:00N 33°36' W 120°08'510.7
2017-Dec-01 01:30N 33°36' W 120°15'510.6
2017-Dec-01 01:00N 33°36' W 120°21'510.7
2017-Dec-01 00:30N 33°36' W 120°28'510.9
2017-Dec-01 00:00N 33°36' W 120°34'510.8
2017-Nov-30 23:30N 33°35' W 120°41'610.8
2017-Nov-30 22:59N 33°35' W 120°48'510.8
2017-Nov-30 22:29N 33°35' W 120°54'611.1
2017-Nov-30 21:57N 33°35' W 121°01'511.2
2017-Nov-30 21:29N 33°35' W 121°07'511.4
2017-Nov-30 21:00N 33°34' W 121°14'611.5
2017-Nov-30 20:28N 33°34' W 121°21'611.2
2017-Nov-30 19:56N 33°34' W 121°28'511.2
2017-Nov-30 19:30N 33°34' W 121°34'510.9
2017-Nov-30 19:00N 33°34' W 121°41'611.0
2017-Nov-30 18:29N 33°34' W 121°48'511.0
2017-Nov-30 18:00N 33°34' W 121°54'611.2
2017-Nov-30 17:30N 33°34' W 122°01'611.1
2017-Nov-30 16:59N 33°34' W 122°08'511.0
2017-Nov-30 16:30N 33°33' W 122°14'510.7
2017-Nov-30 16:00N 33°33' W 122°20'610.8
2017-Nov-30 15:28N 33°33' W 122°27'510.8
2017-Nov-30 15:00N 33°33' W 122°33'610.9
2017-Nov-30 14:29N 33°33' W 122°40'11211.1
2017-Nov-30 04:28N 33°38' W 124°54'7311.6
2017-Nov-29 22:11N 33°59' W 126°18'311.3
2017-Nov-29 21:56N 33°60' W 126°21'611.3
2017-Nov-29 21:26N 34°01' W 126°28'811.5
2017-Nov-29 20:42N 34°04' W 126°37'  
Track history (hours):
 
Tides and Currents Weather Stations Pressure Air Temp Water Temp Dewpoint Dewpoint Depression Visibility Wind Speed Wind Dir Waves Ship Positions

Bangkok Bridge

Last reported at 2017-Dec-07 19:41 UTC. Time now 2017-Dec-13 20:53 UTC.
Position N 38°58' W 129°20'.

Length 267 m; draft 11.8 m.

Type: Ship (hazmat cat A). MMSI: 353368000.

Date/timePositionNaut miles runAvg speedWind from/ knotsBaromVisibWave heightAir tempDewpointWater temp
2017-Dec-07 19:41N 38°58' W 129°20'419.8
2017-Dec-07 19:30N 38°56' W 129°16'1019.8
2017-Dec-07 19:00N 38°51' W 129°05'5919.6
2017-Dec-07 16:00N 38°18' W 128°03'919.1
2017-Dec-07 15:30N 38°13' W 127°53'1019.1
2017-Dec-07 15:00N 38°13' W 127°40'3519.3
2017-Dec-07 13:12N 38°12' W 126°56'419.5
2017-Dec-07 13:01N 38°12' W 126°51'1019.1
2017-Dec-07 12:30N 38°12' W 126°39'1019.3
2017-Dec-07 12:00N 38°12' W 126°27'1019.4
2017-Dec-07 11:30N 38°12' W 126°14'1019.7
2017-Dec-07 11:00N 38°12' W 126°02'1120.0
2017-Dec-07 10:28N 38°12' W 125°48'919.6
2017-Dec-07 10:01N 38°12' W 125°37'1019.3
2017-Dec-07 09:31N 38°11' W 125°24'1019.6
2017-Dec-07 09:01N 38°11' W 125°12'1019.8
2017-Dec-07 08:30N 38°11' W 124°59'1019.7
2017-Dec-07 08:00N 38°11' W 124°47'1019.3
2017-Dec-07 07:31N 38°11' W 124°35'1019.1
2017-Dec-07 07:01N 38°11' W 124°23'919.0
2017-Dec-07 06:31N 38°11' W 124°10'1019.0
2017-Dec-07 06:00N 38°10' W 123°58'1019.1
2017-Dec-07 05:30N 38°10' W 123°46'919.1
2017-Dec-07 05:01N 38°10' W 123°34'1019.2
2017-Dec-07 04:31N 38°10' W 123°22'918.4
2017-Dec-07 04:01N 38°03' W 123°14'918.6
2017-Dec-07 03:30N 37°57' W 123°05'919.0
2017-Dec-07 03:01N 37°52' W 122°54'918.6
2017-Dec-07 02:30N 37°47' W 122°44'612.8
2017-Dec-07 02:00N 37°47' W 122°36'918.4
2017-Dec-07 01:30N 37°51' W 122°26'510.4
2017-Dec-07 01:00N 37°49' W 122°20'0 0.3
2017-Dec-07 00:28N 37°49' W 122°20'0 0.0
2017-Dec-06 23:58N 37°49' W 122°20'0 0.0
2017-Dec-06 23:28N 37°49' W 122°20'0 0.0
2017-Dec-06 22:58N 37°49' W 122°20'0 0.0
2017-Dec-06 22:28N 37°49' W 122°20'0 0.0
2017-Dec-06 21:58N 37°49' W 122°20'0 0.0
2017-Dec-06 21:28N 37°49' W 122°20'0 0.0
2017-Dec-06 20:58N 37°49' W 122°20'  
2017-Dec-04 10:26N 34°04' W 119°16'4 8.7
2017-Dec-04 09:57N 34°02' W 119°11'5 8.8
2017-Dec-04 09:25N 34°00' W 119°06'4 8.9
2017-Dec-04 08:58N 33°58' W 119°02'4 8.6
2017-Dec-04 08:30N 33°56' W 118°58'4 8.7
2017-Dec-04 08:00N 33°54' W 118°54'4 8.6
2017-Dec-04 07:30N 33°52' W 118°49'4 8.5
2017-Dec-04 07:00N 33°50' W 118°45'4 8.6
2017-Dec-04 06:30N 33°48' W 118°40'4 8.5
2017-Dec-04 06:00N 33°46' W 118°36'4 8.4
2017-Dec-04 05:28N 33°43' W 118°31'4 8.5
2017-Dec-04 05:00N 33°41' W 118°27'4 8.3
2017-Dec-04 04:30N 33°39' W 118°23'4 8.1
2017-Dec-04 04:00N 33°38' W 118°18'4 7.8
2017-Dec-04 03:30N 33°39' W 118°13'4 8.1
2017-Dec-04 02:58N 33°43' W 118°11'2 3.0
2017-Dec-04 02:19N 33°45' W 118°12'0 0.1
2017-Dec-04 01:22N 33°45' W 118°12'0 0.0
2017-Dec-04 00:58N 33°45' W 118°12'0 0.0
2017-Dec-04 00:28N 33°45' W 118°12'0 0.0
2017-Dec-03 23:10N 33°45' W 118°12'0 0.3
2017-Dec-03 22:58N 33°45' W 118°12'0 0.0
2017-Dec-03 08:43N 33°45' W 118°12'0 0.2
2017-Dec-03 08:28N 33°45' W 118°12'0 0.1
2017-Dec-03 07:58N 33°45' W 118°12'0 0.1
2017-Dec-03 07:28N 33°45' W 118°12'0 0.0
2017-Dec-03 06:58N 33°45' W 118°12'0 0.0
2017-Dec-03 05:46N 33°45' W 118°12'0 0.2
2017-Dec-03 05:28N 33°45' W 118°12'0 0.0
2017-Dec-03 04:10N 33°45' W 118°12'0 0.2
2017-Dec-03 03:52N 33°45' W 118°12'0 0.1
2017-Dec-03 03:10N 33°45' W 118°12'0 0.0
2017-Dec-03 02:58N 33°45' W 118°12'0 0.0
2017-Dec-03 02:10N 33°45' W 118°12'0 0.0
2017-Dec-03 01:58N 33°45' W 118°12'0 0.0
2017-Dec-03 00:52N 33°45' W 118°12'0 0.0
2017-Dec-02 22:58N 33°45' W 118°12'0 0.0
2017-Dec-02 22:16N 33°45' W 118°12'0 0.0
2017-Dec-02 21:58N 33°45' W 118°12'0 0.0
2017-Dec-02 21:28N 33°45' W 118°12'0 0.0
2017-Dec-02 20:58N 33°45' W 118°12'0 0.0
2017-Dec-02 20:28N 33°45' W 118°12'0 0.0
2017-Dec-02 19:58N 33°45' W 118°12'0 0.0
2017-Dec-02 19:28N 33°45' W 118°12'0 0.0
2017-Dec-02 18:58N 33°45' W 118°12'0 0.0
2017-Dec-02 18:22N 33°45' W 118°12'0 0.1
2017-Dec-02 17:58N 33°45' W 118°12'0 0.0
2017-Dec-02 10:40N 33°45' W 118°12'0 0.0
2017-Dec-02 10:28N 33°45' W 118°12'0 0.0
2017-Dec-02 09:58N 33°45' W 118°12'0 0.0
2017-Dec-02 09:28N 33°45' W 118°12'0 0.1
2017-Dec-02 08:58N 33°45' W 118°12'0 0.0
2017-Dec-02 08:28N 33°45' W 118°12'0 0.1
2017-Dec-02 07:58N 33°45' W 118°12'0 0.0
2017-Dec-02 07:28N 33°45' W 118°12'0 0.0
2017-Dec-02 06:58N 33°45' W 118°12'0 0.1
2017-Dec-02 06:28N 33°45' W 118°12'0 0.0
2017-Dec-02 05:58N 33°45' W 118°12'0 0.1
2017-Dec-02 05:28N 33°45' W 118°12'0 0.1
2017-Dec-02 04:52N 33°45' W 118°12'0 0.0
2017-Dec-02 04:28N 33°45' W 118°12'0 0.0
2017-Dec-02 03:34N 33°45' W 118°12'0 0.2
2017-Dec-02 03:22N 33°45' W 118°12'0 0.0
2017-Dec-02 01:04N 33°45' W 118°12'0 0.5
2017-Dec-02 00:58N 33°45' W 118°12'0 0.0
2017-Dec-02 00:22N 33°45' W 118°12'0 0.1
2017-Dec-01 23:58N 33°45' W 118°12'0 0.0
2017-Dec-01 23:28N 33°45' W 118°12'0 0.0
2017-Dec-01 22:58N 33°45' W 118°12'0 0.0
2017-Dec-01 22:28N 33°45' W 118°12'0 0.0
2017-Dec-01 21:58N 33°45' W 118°12'0 0.0
2017-Dec-01 21:28N 33°45' W 118°12'0 0.0
2017-Dec-01 20:58N 33°45' W 118°12'0 0.0
2017-Dec-01 20:28N 33°45' W 118°12'0 0.0
2017-Dec-01 19:58N 33°45' W 118°12'0 0.0
2017-Dec-01 19:28N 33°45' W 118°12'0 0.0
2017-Dec-01 14:13N 33°45' W 118°12'0 0.0
2017-Dec-01 14:00N 33°45' W 118°12'0 0.0
2017-Dec-01 13:30N 33°45' W 118°12'0 0.1
2017-Dec-01 12:58N 33°45' W 118°12'1 2.6
2017-Dec-01 12:28N 33°43' W 118°11'4 9.5
2017-Dec-01 12:00N 33°39' W 118°11'4 8.0
2017-Dec-01 11:30N 33°36' W 118°15'4 8.4
2017-Dec-01 11:00N 33°36' W 118°20'5 9.6
2017-Dec-01 10:30N 33°37' W 118°26'5 9.5
2017-Dec-01 10:00N 33°37' W 118°31'5 9.1
2017-Dec-01 09:30N 33°37' W 118°37'5 9.1
2017-Dec-01 08:59N 33°37' W 118°43'5 9.5
2017-Dec-01 08:28N 33°37' W 118°48'4 9.6
2017-Dec-01 08:00N 33°37' W 118°54'5 9.6
2017-Dec-01 07:26N 33°38' W 119°00'5 9.9
2017-Dec-01 06:59N 33°38' W 119°06'5 9.9
2017-Dec-01 06:30N 33°37' W 119°11'5 9.7
2017-Dec-01 05:59N 33°37' W 119°17'510.3
2017-Dec-01 05:30N 33°37' W 119°23'611.4
2017-Dec-01 04:58N 33°37' W 119°31'511.0
2017-Dec-01 04:30N 33°37' W 119°37'611.1
2017-Dec-01 04:00N 33°37' W 119°43'610.9
2017-Dec-01 03:28N 33°37' W 119°50'511.0
2017-Dec-01 03:00N 33°36' W 119°57'5 9.4
2017-Dec-01 02:30N 33°36' W 120°02'510.5
2017-Dec-01 02:00N 33°36' W 120°08'510.7
2017-Dec-01 01:30N 33°36' W 120°15'510.6
2017-Dec-01 01:00N 33°36' W 120°21'510.7
2017-Dec-01 00:30N 33°36' W 120°28'510.9
2017-Dec-01 00:00N 33°36' W 120°34'510.8
2017-Nov-30 23:30N 33°35' W 120°41'610.8
2017-Nov-30 22:59N 33°35' W 120°48'510.8
2017-Nov-30 22:29N 33°35' W 120°54'611.1
2017-Nov-30 21:57N 33°35' W 121°01'511.2
2017-Nov-30 21:29N 33°35' W 121°07'511.4
2017-Nov-30 21:00N 33°34' W 121°14'611.5
2017-Nov-30 20:28N 33°34' W 121°21'611.2
2017-Nov-30 19:56N 33°34' W 121°28'511.2
2017-Nov-30 19:30N 33°34' W 121°34'510.9
2017-Nov-30 19:00N 33°34' W 121°41'611.0
2017-Nov-30 18:29N 33°34' W 121°48'511.0
2017-Nov-30 18:00N 33°34' W 121°54'611.2
2017-Nov-30 17:30N 33°34' W 122°01'611.1
2017-Nov-30 16:59N 33°34' W 122°08'511.0
2017-Nov-30 16:30N 33°33' W 122°14'510.7
2017-Nov-30 16:00N 33°33' W 122°20'610.8
2017-Nov-30 15:28N 33°33' W 122°27'510.8
2017-Nov-30 15:00N 33°33' W 122°33'610.9
2017-Nov-30 14:29N 33°33' W 122°40'11211.1
2017-Nov-30 04:28N 33°38' W 124°54'7311.6
2017-Nov-29 22:11N 33°59' W 126°18'311.3
2017-Nov-29 21:56N 33°60' W 126°21'611.3
2017-Nov-29 21:26N 34°01' W 126°28'811.5
2017-Nov-29 20:42N 34°04' W 126°37'  

Dump ship's entire track history